Login

Nihil
4 activity; - Last training unit 06/06/2015
06/06/2015 Show to everybody maddalena ricognizione 32.28 574 02:59:57 10.76 Km\h Rockrider 9.1
03/06/2015 Show to everybody maddalena strada 3 giugno 2015 32.73 544 01:57:20 16.74 Km\h Rockrider 9.1
26/05/2015 Show to everybody giretto easy strada 26 maggio 15 20.46 81 00:59:35 20.6 Km\h Rockrider 9.1
03/04/2015 Show to everybody bici da corsa - pecetto e maddalena da strada maiole 3-4-15 41.16 628 02:12:15 18.67 Km\h Rockrider 9.1
28/03/2015 Show to everybody 28marzo2015 36.01 336 02:20:20 15.4 Km\h Rockrider 9.1
14/03/2015 Show to everybody 14marzo2015 32.49 647 02:48:10 11.59 Km\h Rockrider 9.1
11/12/2014 Show to everybody sentiero 11 11-12-14 25.25 401 01:38:58 15.31 Km\h Rockrider 9.1
19/10/2014 Show to everybody activity_616549297 25.04 219 06:12:45 4.03 Km\h Rockrider 9.1
17/10/2014 Show to everybody maddalena 17-10-14 30.28 469 02:44:34 11.04 Km\h Rockrider 9.1
02/10/2014 Show to everybody sentieri 11 e 10 2-10-14 11.03 458 01:08:04 9.72 Km\h Rockrider 9.1
27/09/2014 Show to everybody sentieri maddalena 12 e 11 27-9-14 28.99 523 01:59:45 14.52 Km\h
20/09/2014 Show to everybody sentieri in maddalena 20-9-14 36.14 552 02:41:45 13.41 Km\h
20/09/2014 Show to everybody Sentieri in Maddalena 20-9-14 36.07 683 02:37:39 13.73 Km\h
16/09/2014 Show to everybody maddalena sent. 12 e 11 16-9-14 34.57 677 02:31:17 13.71 Km\h Rockrider 9.1
08/09/2014 Show to everybody dacorsavolvera 8-9-14 33.09 94 01:06:16 29.96 Km\h Rockrider 9.1
06/09/2014 Show to everybody 600 collina di superga 6-9-14 50.8 698 03:48:42 13.33 Km\h Rockrider 9.1
06/09/2014 Show to everybody 600 collina di Superga 6-9-14 50.78 912 03:44:54 13.55 Km\h
28/08/2014 Show to everybody morenica e moncuni 28-8-14 26.17 518 02:28:52 10.55 Km\h
25/08/2014 Show to everybody colle della maddalena 25-8-14 71.32 1133 02:19:37 30.65 Km\h Rockrider 9.1
25/08/2014 Show to everybody Colle della Maddalena 25-8-14 35.47 662 02:18:53 15.32 Km\h
24/08/2014 Show to everybody a piedi brondello 24-8-14 0.82 0 00:17:43 2.79 Km\h Rockrider 9.1
21/08/2014 Show to everybody colle della maddalena 21-8-14 27.11 544 02:20:54 11.54 Km\h Rockrider 9.1
19/08/2014 Show to everybody rivalta bagnata 19-8-14 19.85 46 00:28:52 41.26 Km\h Rockrider 9.1
15/08/2014 Show to everybody corsa san vincenzo 8.28 12 00:37:56 13.09 Km\h Rockrider 9.1
13/08/2014 Show to everybody golfo dei baratti e populonia alta 13-8-14 21.05 238 01:10:15 17.98 Km\h Rockrider 9.1
12/08/2014 Show to everybody san vincenzo 12-8-14 20.94 45 00:48:11 26.07 Km\h Rockrider 9.1
08/08/2014 Show to everybody montafia e montechiaro d\'asti 8-8-14 25.99 427 01:35:57 16.25 Km\h
08/08/2014 Show to everybody Montafia e Montechiaro d'Asti 8-8-14 26.03 548 01:33:45 16.66 Km\h
04/08/2014 Show to everybody san mauro 4-8-14 48.54 215 02:52:31 16.88 Km\h Rockrider 9.1
27/07/2014 Show to everybody colle della maddalena 27-7-14 36.27 625 02:37:08 13.85 Km\h Rockrider 9.1
18/07/2014 Show to everybody cavoretto e moncalieri 18-7-14 33.97 344 02:09:11 15.78 Km\h Rockrider 9.1
15/07/2014 Show to everybody cinghiali + fate 15-7-14 18.68 700 02:12:12 8.48 Km\h Rockrider 9.1
15/07/2014 Show to everybody Cinghiali e fate 15-7-14 18.45 732 02:10:44 8.47 Km\h
13/07/2014 Show to everybody Pedalata notturna 4.68 44 00:05:59 46.95 Km\h
12/07/2014 Show to everybody Colle della Maddalena 12-7-14 33.11 639 02:38:02 12.57 Km\h Rockrider 9.1
11/07/2014 Show to everybody Allenamento da fabio 11-7-14 4.86 67 00:26:38 10.95 Km\h Rockrider 9.1
08/07/2014 Show to everybody 07/08/2014 Asti, Italy, Piedmont, Italy 18.85 278 00:50:39 22.33 Km\h
03/07/2014 Show to everybody colle della maddalena 3-7-14 42.4 701 03:15:58 12.98 Km\h Rockrider 9.1
03/07/2014 Show to everybody 07/03/2014 Turin, Piedmont, Italy 42.04 633 03:09:43 13.3 Km\h
11/06/2014 Show to everybody colle della maddalena 11-6-14 31.69 709 02:44:20 11.57 Km\h Rockrider 9.1
29/05/2014 Show to everybody maddalena (sent.10) e cavoretto da moncalieri 29-5-14 29.35 475 01:40:44 17.48 Km\h Rockrider 9.1
29/05/2014 Show to everybody passeggiata gelato 29-5-14 11.46 170 01:04:35 10.65 Km\h
28/05/2014 Show to everybody allenamento andata 28-5-14 2.76 48 00:14:59 11.06 Km\h
28/05/2014 Show to everybody allenamento ritorno 28-5-14 2.33 45 00:15:03 9.29 Km\h
27/05/2014 Show to everybody colle della maddalena 27-5-14 24.56 657 01:40:16 14.69 Km\h Rockrider 9.1
24/05/2014 Show to everybody selleries 24-5-14 24.66 1131 03:34:27 6.9 Km\h Rockrider 9.1
22/05/2014 Show to everybody montafia 22-5-14 24.12 548 02:19:16 10.39 Km\h Rockrider 9.1
18/05/2014 Show to everybody cinghiali 18-5-14 19.09 688 02:15:21 8.46 Km\h Rockrider 9.1
12/05/2014 Show to everybody moncuni da avigliana 12-5-14 13.05 392 01:19:40 9.83 Km\h Rockrider 9.1
07/05/2014 Show to everybody moncuni 7-5-14 25.87 476 01:58:18 13.12 Km\h Rockrider 9.1
04/05/2014 Show to everybody prarotto 4-5-14 26.57 1073 03:38:46 7.29 Km\h Rockrider 9.1
01/05/2014 Show to everybody musinè 2-5-14 22.38 392 01:37:51 13.72 Km\h Rockrider 9.1
28/05/2012 Show to everybody Percorso cittadino 1 Torino 19.41 245 01:08:34 16.98 Km\h Rockrider 9.1
30/11/1999 Show to everybody colle della maddalena 25-8-14 71.32 1133 02:19:37 30.65 Km\h Rockrider 9.1
Training units 0
Kilometers 0 Km
Vertical gain 0 mt
Hours of riding 00:00:00
Average speed 0 Km/h
average HR 129
Points 95
Live Tracking »

Rockrider 9.1 83:00:31 1124.43 Km

 
If you stop following this users you will not be able to compare your trainings with his

Now you follow this users and you can compare your trainings


MTB-Forum.it | 2012-2019 Training Camp v.1.6 rev 05